createdAt,value
2023-02-14T00:02:06.488Z,79.55
2023-02-14T00:04:43.138Z,79.47
2023-02-14T00:07:15.548Z,79.58
2023-02-14T00:09:48.028Z,80.26
2023-02-14T00:12:20.440Z,80.08
2023-02-14T00:15:11.384Z,81.47
2023-02-14T00:17:44.400Z,81.26
2023-02-14T00:20:17.164Z,81.27
2023-02-14T00:22:49.804Z,80.71
2023-02-14T00:25:22.247Z,80.45
2023-02-14T00:27:54.876Z,80.65
2023-02-14T00:30:27.467Z,80.25
2023-02-14T00:33:01.017Z,80.30
2023-02-14T00:35:37.387Z,80.02
2023-02-14T00:38:09.872Z,79.40
2023-02-14T00:40:45.323Z,80.39
2023-02-14T00:43:17.658Z,80.95
2023-02-14T00:45:50.401Z,80.63
2023-02-14T00:48:23.614Z,80.73
2023-02-14T00:50:56.370Z,80.68
2023-02-14T00:53:28.903Z,80.49
2023-02-14T00:56:01.615Z,82.30
2023-02-14T00:58:33.962Z,82.23
2023-02-14T01:01:06.785Z,81.12
2023-02-14T01:03:39.872Z,81.77
2023-02-14T01:06:12.330Z,80.90
2023-02-14T01:08:44.805Z,80.22
2023-02-14T01:11:20.292Z,81.29
2023-02-14T01:13:55.088Z,82.24
2023-02-14T01:16:29.720Z,82.71
2023-02-14T01:19:02.832Z,83.33
2023-02-14T01:21:35.245Z,83.12
2023-02-14T01:24:08.525Z,82.65
2023-02-14T01:26:41.046Z,82.55
2023-02-14T01:29:14.718Z,82.41
2023-02-14T01:31:48.578Z,82.54
2023-02-14T01:34:21.589Z,82.42
2023-02-14T01:36:53.994Z,81.89
2023-02-14T01:39:26.551Z,81.00
2023-02-14T01:41:58.951Z,80.93
2023-02-14T01:45:01.636Z,80.99
2023-02-14T01:47:39.425Z,80.36
2023-02-14T01:50:16.975Z,79.92
2023-02-14T01:52:54.530Z,80.27
2023-02-14T01:55:30.259Z,82.12
2023-02-14T01:58:09.045Z,81.98
2023-02-14T02:00:58.894Z,81.42
2023-02-14T02:03:34.378Z,81.28
2023-02-14T02:06:12.835Z,81.13
2023-02-14T02:08:51.983Z,81.25
2023-02-14T02:11:25.246Z,81.36
2023-02-14T02:13:57.688Z,80.64
2023-02-14T02:16:58.157Z,80.75
2023-02-14T02:20:02.747Z,81.79
2023-02-14T02:23:09.258Z,81.31
2023-02-14T02:26:09.289Z,81.49
2023-02-14T02:29:09.414Z,81.71
2023-02-14T02:32:11.624Z,81.83
2023-02-14T02:35:15.767Z,81.90
2023-02-14T02:38:03.315Z,81.54
2023-02-14T02:40:46.560Z,82.56
2023-02-14T02:43:33.205Z,82.04
2023-02-14T02:46:29.929Z,82.81
2023-02-14T02:49:08.486Z,82.30
2023-02-14T02:52:06.716Z,81.83
2023-02-14T02:54:44.419Z,80.53
2023-02-14T02:57:26.418Z,81.29
2023-02-14T03:00:04.387Z,80.16
2023-02-14T03:02:55.020Z,79.94
2023-02-14T03:05:29.164Z,79.96
2023-02-14T03:08:03.173Z,80.29
2023-02-14T03:10:39.290Z,80.62
2023-02-14T03:13:39.152Z,79.22
2023-02-14T03:16:28.020Z,78.90
2023-02-14T03:19:50.849Z,79.68
2023-02-14T03:22:35.637Z,79.54
2023-02-14T03:25:20.782Z,79.57
2023-02-14T03:27:58.720Z,80.08
2023-02-14T03:30:41.453Z,80.28
2023-02-14T03:33:22.053Z,80.10
2023-02-14T03:36:01.633Z,80.53
2023-02-14T03:38:42.974Z,80.07
2023-02-14T03:41:22.240Z,80.35
2023-02-14T03:43:59.118Z,80.35
2023-02-14T03:46:35.949Z,79.78
2023-02-14T03:49:13.358Z,79.93
2023-02-14T03:51:48.953Z,79.41
2023-02-14T03:54:23.122Z,79.40
2023-02-14T03:57:04.430Z,79.53
2023-02-14T03:59:37.012Z,80.40
2023-02-14T04:02:14.431Z,80.21
2023-02-14T04:04:49.818Z,80.10
2023-02-14T04:07:24.142Z,80.12
2023-02-14T04:09:56.680Z,79.99
2023-02-14T04:12:37.671Z,81.32
2023-02-14T04:15:11.609Z,80.17
2023-02-14T04:18:01.836Z,80.90
2023-02-14T04:20:34.271Z,80.86
2023-02-14T04:23:06.649Z,80.27
2023-02-14T04:25:39.705Z,80.32
2023-02-14T04:28:13.291Z,79.60
2023-02-14T04:30:45.628Z,79.33
2023-02-14T04:33:17.998Z,79.11
2023-02-14T04:35:50.383Z,80.59
2023-02-14T04:38:22.841Z,80.43
2023-02-14T04:40:55.195Z,80.33
2023-02-14T04:43:28.285Z,80.39
2023-02-14T04:46:01.023Z,80.49
2023-02-14T04:48:33.371Z,80.10
2023-02-14T04:51:06.152Z,79.51
2023-02-14T04:53:39.667Z,79.40
2023-02-14T04:56:11.951Z,79.31
2023-02-14T04:58:45.193Z,79.03
2023-02-14T05:01:17.566Z,79.25
2023-02-14T05:03:49.956Z,79.75
2023-02-14T05:06:22.565Z,80.16
2023-02-14T05:08:55.497Z,80.61
2023-02-14T05:11:28.419Z,80.21
2023-02-14T05:14:01.517Z,79.55
2023-02-14T05:16:33.931Z,80.88
2023-02-14T05:19:06.697Z,80.59
2023-02-14T05:21:39.048Z,79.88
2023-02-14T05:24:11.721Z,79.51
2023-02-14T05:26:44.205Z,79.35
2023-02-14T05:29:17.272Z,79.18
2023-02-14T05:31:49.764Z,79.29
2023-02-14T05:34:22.179Z,80.31
2023-02-14T05:36:54.593Z,79.76
2023-02-14T05:39:27.006Z,80.02
2023-02-14T05:41:59.512Z,80.69
2023-02-14T05:44:32.692Z,80.15
2023-02-14T05:47:05.131Z,80.67
2023-02-14T05:49:37.591Z,80.49
2023-02-14T05:52:10.231Z,80.48
2023-02-14T05:54:42.740Z,80.12
2023-02-14T05:57:15.343Z,80.37
2023-02-14T05:59:48.618Z,80.19
2023-02-14T06:02:21.161Z,80.03
2023-02-14T06:04:53.597Z,80.62
2023-02-14T06:07:26.100Z,80.63
2023-02-14T06:09:58.448Z,80.15
2023-02-14T06:12:31.398Z,80.38
2023-02-14T06:15:05.178Z,79.58
2023-02-14T06:17:37.862Z,80.14
2023-02-14T06:20:11.344Z,80.00
2023-02-14T06:22:43.997Z,80.01
2023-02-14T06:25:17.144Z,80.28
2023-02-14T06:27:49.725Z,80.01
2023-02-14T06:30:23.054Z,79.62
2023-02-14T06:32:55.592Z,79.68
2023-02-14T06:35:28.047Z,79.16
2023-02-14T06:38:00.430Z,79.86
2023-02-14T06:40:32.862Z,80.43
2023-02-14T06:43:05.265Z,80.39
2023-02-14T06:45:38.250Z,80.46
2023-02-14T06:48:10.846Z,81.18
2023-02-14T06:50:43.213Z,81.39
2023-02-14T06:53:16.021Z,81.65
2023-02-14T06:55:48.615Z,80.63
2023-02-14T06:58:21.034Z,81.91
2023-02-14T07:00:55.303Z,83.69
2023-02-14T07:03:27.770Z,82.95
2023-02-14T07:06:00.162Z,82.45
2023-02-14T07:08:32.907Z,82.77
2023-02-14T07:11:05.434Z,83.60
2023-02-14T07:13:37.784Z,83.15
2023-02-14T07:16:10.881Z,83.37
2023-02-14T07:18:43.269Z,82.83
2023-02-14T07:21:16.079Z,83.13
2023-02-14T07:23:49.595Z,82.71
2023-02-14T07:26:21.896Z,82.96
2023-02-14T07:28:54.223Z,83.15
2023-02-14T07:31:27.459Z,82.98
2023-02-14T07:34:00.195Z,84.32
2023-02-14T07:36:33.784Z,83.86
2023-02-14T07:39:06.487Z,83.99
2023-02-14T07:41:38.886Z,84.39
2023-02-14T07:44:15.366Z,84.39
2023-02-14T07:46:48.351Z,83.51
2023-02-14T07:49:20.980Z,83.67
2023-02-14T07:51:53.338Z,83.51
2023-02-14T07:54:29.561Z,83.48
2023-02-14T07:57:01.908Z,84.34
2023-02-14T07:59:34.314Z,85.51
2023-02-14T08:02:09.090Z,86.92
2023-02-14T08:04:41.462Z,87.76
2023-02-14T08:07:13.859Z,87.53
2023-02-14T08:09:46.184Z,87.08
2023-02-14T08:12:36.761Z,86.91
2023-02-14T08:15:27.446Z,87.82
2023-02-14T08:18:00.974Z,87.30
2023-02-14T08:20:33.297Z,87.67
2023-02-14T08:23:05.804Z,87.63
2023-02-14T08:25:38.500Z,88.36
2023-02-14T08:28:12.659Z,87.45
2023-02-14T08:30:45.511Z,87.12
2023-02-14T08:33:18.894Z,87.37
2023-02-14T08:35:51.880Z,87.25
2023-02-14T08:38:24.478Z,89.74
2023-02-14T08:40:59.832Z,89.51
2023-02-14T08:43:34.290Z,89.21
2023-02-14T08:46:06.863Z,89.78
2023-02-14T08:48:40.103Z,89.08
2023-02-14T08:51:14.272Z,88.37
2023-02-14T08:53:49.708Z,89.40
2023-02-14T08:56:22.066Z,89.16
2023-02-14T08:58:54.631Z,90.36
2023-02-14T09:01:28.319Z,90.09
2023-02-14T09:04:01.846Z,89.43
2023-02-14T09:06:37.800Z,89.74
2023-02-14T09:09:10.354Z,89.14
2023-02-14T09:11:43.150Z,88.87
2023-02-14T09:14:15.906Z,87.49
2023-02-14T09:16:48.325Z,87.29
2023-02-14T09:19:21.454Z,87.13
2023-02-14T09:21:53.897Z,87.05
2023-02-14T09:24:27.052Z,88.68
2023-02-14T09:26:59.598Z,89.94
2023-02-14T09:29:33.834Z,91.02
2023-02-14T09:32:06.306Z,91.87
2023-02-14T09:34:39.544Z,92.10
2023-02-14T09:37:31.379Z,92.02
2023-02-14T09:40:04.910Z,93.05
2023-02-14T09:42:45.695Z,93.31
2023-02-14T09:45:21.376Z,93.75
2023-02-14T09:47:59.126Z,93.79
2023-02-14T09:50:36.841Z,95.07
2023-02-14T09:53:21.007Z,95.14
2023-02-14T09:56:02.173Z,93.75
2023-02-14T09:58:40.474Z,93.68
2023-02-14T10:01:16.951Z,93.97
2023-02-14T10:04:04.866Z,93.84
2023-02-14T10:06:50.193Z,94.22
2023-02-14T10:09:43.349Z,94.50
2023-02-14T10:12:22.421Z,93.39
2023-02-14T10:14:59.890Z,93.94
2023-02-14T10:17:40.698Z,94.19
2023-02-14T10:20:25.261Z,93.32
2023-02-14T10:23:05.287Z,93.61
2023-02-14T10:25:45.091Z,93.34
2023-02-14T10:28:24.516Z,92.67
2023-02-14T10:31:15.825Z,91.71
2023-02-14T10:33:57.369Z,90.94
2023-02-14T10:36:43.882Z,91.04
2023-02-14T10:39:32.992Z,92.30
2023-02-14T10:42:19.048Z,94.02
2023-02-14T10:45:01.781Z,92.10
2023-02-14T10:47:44.450Z,93.40
2023-02-14T10:50:21.753Z,92.16
2023-02-14T10:53:07.921Z,91.18
2023-02-14T10:55:47.129Z,90.83
2023-02-14T10:58:22.271Z,90.13
2023-02-14T11:01:01.890Z,90.46
2023-02-14T11:03:37.905Z,89.44
2023-02-14T11:06:10.708Z,87.62
2023-02-14T11:08:43.322Z,87.04
2023-02-14T11:11:23.912Z,88.01
2023-02-14T11:13:56.310Z,87.12
2023-02-14T11:16:31.180Z,87.97
2023-02-14T11:19:10.539Z,87.89
2023-02-14T11:21:44.954Z,86.74
2023-02-14T11:24:24.851Z,88.31
2023-02-14T11:27:01.497Z,87.21
2023-02-14T11:29:42.429Z,87.05
2023-02-14T11:32:20.910Z,86.42
2023-02-14T11:34:57.330Z,86.50
2023-02-14T11:37:33.192Z,85.58
2023-02-14T11:40:07.485Z,84.62
2023-02-14T11:42:44.037Z,83.88
2023-02-14T11:45:32.127Z,83.01
2023-02-14T11:48:19.694Z,83.66
2023-02-14T11:51:00.780Z,82.69
2023-02-14T11:53:43.708Z,82.85
2023-02-14T11:56:17.891Z,83.11
2023-02-14T11:58:56.002Z,82.69
2023-02-14T12:01:31.003Z,84.47
2023-02-14T12:04:11.758Z,84.53
2023-02-14T12:06:45.267Z,84.75
2023-02-14T12:09:27.070Z,84.22
2023-02-14T12:12:02.324Z,83.66
2023-02-14T12:14:35.917Z,83.90
2023-02-14T12:17:29.147Z,83.75
2023-02-14T12:20:08.907Z,84.55
2023-02-14T12:22:46.208Z,83.76
2023-02-14T12:25:22.105Z,83.41
2023-02-14T12:28:01.082Z,83.01
2023-02-14T12:30:35.099Z,83.31
2023-02-14T12:33:17.697Z,82.72
2023-02-14T12:35:59.416Z,84.27
2023-02-14T12:38:43.704Z,86.22
2023-02-14T12:41:29.893Z,86.03
2023-02-14T12:44:07.018Z,85.61
2023-02-14T12:47:04.632Z,84.52
2023-02-14T12:50:18.378Z,84.54
2023-02-14T12:53:06.705Z,84.25
2023-02-14T12:55:56.604Z,83.61
2023-02-14T12:58:46.247Z,84.01
2023-02-14T13:01:49.423Z,83.49
2023-02-14T13:04:57.602Z,83.67
2023-02-14T13:07:45.531Z,83.20
2023-02-14T13:10:31.410Z,82.51
2023-02-14T13:13:09.792Z,81.91
2023-02-14T13:15:53.051Z,83.31
2023-02-14T13:18:37.807Z,84.12
2023-02-14T13:21:13.984Z,84.32
2023-02-14T13:23:49.366Z,85.71
2023-02-14T13:26:27.286Z,85.16
2023-02-14T13:29:03.591Z,84.44
2023-02-14T13:31:37.497Z,84.18
2023-02-14T13:34:23.363Z,83.13
2023-02-14T13:36:58.039Z,82.98
2023-02-14T13:39:38.544Z,83.71
2023-02-14T13:42:12.328Z,86.33
2023-02-14T13:44:48.336Z,85.66
2023-02-14T13:47:22.958Z,84.98
2023-02-14T13:49:57.520Z,86.23
2023-02-14T13:52:41.422Z,86.10
2023-02-14T13:55:18.697Z,85.40
2023-02-14T13:58:02.692Z,85.34
2023-02-14T14:00:40.532Z,84.66
2023-02-14T14:03:14.885Z,83.34
2023-02-14T14:06:05.860Z,83.44
2023-02-14T14:08:47.769Z,83.26
2023-02-14T14:11:59.956Z,83.05
2023-02-14T14:14:39.059Z,82.80
2023-02-14T14:17:22.368Z,82.73
2023-02-14T14:19:54.802Z,82.85
2023-02-14T14:22:28.460Z,82.87
2023-02-14T14:25:04.531Z,82.38
2023-02-14T14:27:42.401Z,81.91
2023-02-14T14:30:20.966Z,81.85
2023-02-14T14:32:53.547Z,82.15
2023-02-14T14:35:25.970Z,81.81
2023-02-14T14:38:00.966Z,82.00
2023-02-14T14:40:35.938Z,82.74
2023-02-14T14:43:14.004Z,81.87
2023-02-14T14:45:48.745Z,81.98
2023-02-14T14:48:29.493Z,81.54
2023-02-14T14:51:04.167Z,81.07
2023-02-14T14:53:43.966Z,81.60
2023-02-14T14:56:19.486Z,81.86
2023-02-14T14:58:52.536Z,81.51
2023-02-14T15:01:31.700Z,81.96
2023-02-14T15:04:15.363Z,82.37
2023-02-14T15:06:49.082Z,83.48
2023-02-14T15:09:24.087Z,82.79
2023-02-14T15:12:17.191Z,82.15
2023-02-14T15:14:53.850Z,82.82
2023-02-14T15:17:29.189Z,82.85
2023-02-14T15:20:05.003Z,83.28
2023-02-14T15:22:42.167Z,83.64
2023-02-14T15:25:19.755Z,83.72
2023-02-14T15:27:52.375Z,83.64
2023-02-14T15:30:30.066Z,83.47
2023-02-14T15:33:04.603Z,84.47
2023-02-14T15:35:41.547Z,85.02
2023-02-14T15:38:14.698Z,85.98
2023-02-14T15:40:47.418Z,84.82
2023-02-14T15:43:26.928Z,84.63
2023-02-14T15:46:15.288Z,84.63
2023-02-14T15:48:48.353Z,85.39
2023-02-14T15:51:22.506Z,84.53
2023-02-14T15:53:57.539Z,84.21
2023-02-14T15:56:33.520Z,85.94
2023-02-14T15:59:12.272Z,86.39
2023-02-14T16:01:52.068Z,84.80
2023-02-14T16:04:25.890Z,84.35
2023-02-14T16:07:21.128Z,85.09
2023-02-14T16:10:19.662Z,85.96
2023-02-14T16:12:58.898Z,85.13
2023-02-14T16:15:32.468Z,84.52
2023-02-14T16:18:17.911Z,85.55
2023-02-14T16:20:50.967Z,85.63
2023-02-14T16:23:26.797Z,85.36
2023-02-14T16:25:59.104Z,85.21
2023-02-14T16:28:32.604Z,85.17
2023-02-14T16:31:09.707Z,85.02
2023-02-14T16:33:42.231Z,86.21
2023-02-14T16:36:19.400Z,86.68
2023-02-14T16:38:52.716Z,86.56
2023-02-14T16:41:26.936Z,86.28
2023-02-14T16:44:00.125Z,86.22
2023-02-14T16:46:35.763Z,85.53
2023-02-14T16:49:08.395Z,85.60
2023-02-14T16:51:44.748Z,85.74
2023-02-14T16:54:19.640Z,85.67
2023-02-14T16:56:55.180Z,85.74
2023-02-14T16:59:27.660Z,85.37
2023-02-14T17:02:00.458Z,85.22
2023-02-14T17:04:32.892Z,84.41
2023-02-14T17:07:06.826Z,84.03
2023-02-14T17:09:42.557Z,83.80
2023-02-14T17:12:19.904Z,83.42
2023-02-14T17:14:56.734Z,83.23
2023-02-14T17:17:29.765Z,83.15
2023-02-14T17:20:04.180Z,82.02
2023-02-14T17:22:37.632Z,82.42
2023-02-14T17:25:10.875Z,84.70
2023-02-14T17:27:43.879Z,82.08
2023-02-14T17:30:17.153Z,81.89
2023-02-14T17:32:49.535Z,81.33
2023-02-14T17:35:22.206Z,81.74
2023-02-14T17:37:55.273Z,81.39
2023-02-14T17:40:28.046Z,81.09
2023-02-14T17:43:01.107Z,80.98
2023-02-14T17:45:33.526Z,81.37
2023-02-14T17:48:06.015Z,80.87
2023-02-14T17:50:38.410Z,80.29
2023-02-14T17:53:11.895Z,79.62
2023-02-14T17:55:45.008Z,79.72
2023-02-14T17:58:17.394Z,78.65
2023-02-14T18:00:49.855Z,78.98
2023-02-14T18:03:22.220Z,79.32
2023-02-14T18:05:56.740Z,79.61
2023-02-14T18:08:31.560Z,79.82
2023-02-14T18:11:05.034Z,79.66
2023-02-14T18:13:38.659Z,79.40
2023-02-14T18:16:14.317Z,78.53
2023-02-14T18:18:47.078Z,78.43
2023-02-14T18:21:20.629Z,78.88
2023-02-14T18:23:53.767Z,78.45
2023-02-14T18:26:26.728Z,78.44
2023-02-14T18:29:05.712Z,78.18
2023-02-14T18:31:40.236Z,78.29
2023-02-14T18:34:12.890Z,78.44
2023-02-14T18:36:45.365Z,77.97
2023-02-14T18:39:19.303Z,77.10
2023-02-14T18:41:51.901Z,77.79
2023-02-14T18:44:28.005Z,77.96
2023-02-14T18:47:01.201Z,77.90
2023-02-14T18:49:33.705Z,77.69
2023-02-14T18:52:06.355Z,77.97
2023-02-14T18:54:39.740Z,78.40
2023-02-14T18:57:12.249Z,79.57
2023-02-14T18:59:44.786Z,79.72
2023-02-14T19:02:17.272Z,79.34
2023-02-14T19:04:49.731Z,79.38
2023-02-14T19:07:22.140Z,79.04
2023-02-14T19:09:55.487Z,79.16
2023-02-14T19:12:30.460Z,79.41
2023-02-14T19:15:02.921Z,80.03
2023-02-14T19:17:37.482Z,80.41
2023-02-14T19:20:11.915Z,80.26
2023-02-14T19:22:44.314Z,80.08
2023-02-14T19:25:17.519Z,80.51
2023-02-14T19:27:50.488Z,80.27
2023-02-14T19:30:23.038Z,79.78
2023-02-14T19:32:55.529Z,80.11
2023-02-14T19:35:27.866Z,80.11
2023-02-14T19:38:02.774Z,80.54
2023-02-14T19:40:35.809Z,81.02
2023-02-14T19:43:08.378Z,81.14
2023-02-14T19:45:40.955Z,80.76
2023-02-14T19:48:13.660Z,80.91
2023-02-14T19:50:46.019Z,81.60
2023-02-14T19:53:18.715Z,81.46
2023-02-14T19:55:52.066Z,81.54
2023-02-14T19:58:25.372Z,82.52
2023-02-14T20:00:59.862Z,81.84
2023-02-14T20:03:35.021Z,81.69
2023-02-14T20:06:07.922Z,81.76
2023-02-14T20:08:40.328Z,81.01
2023-02-14T20:11:24.577Z,81.13
2023-02-14T20:13:57.736Z,81.56
2023-02-14T20:16:32.738Z,81.65
2023-02-14T20:19:07.629Z,81.61
2023-02-14T20:21:41.348Z,81.26
2023-02-14T20:24:16.745Z,80.63
2023-02-14T20:26:51.437Z,80.58
2023-02-14T20:29:25.748Z,80.35
2023-02-14T20:32:00.957Z,81.16
2023-02-14T20:34:33.469Z,80.35
2023-02-14T20:37:06.157Z,80.40
2023-02-14T20:39:38.649Z,80.82
2023-02-14T20:42:11.659Z,80.07
2023-02-14T20:44:45.077Z,79.67
2023-02-14T20:47:17.448Z,79.82
2023-02-14T20:49:50.088Z,79.94
2023-02-14T20:52:22.506Z,80.01
2023-02-14T20:54:54.882Z,79.73
2023-02-14T20:57:29.500Z,80.29
2023-02-14T21:00:01.943Z,80.28
2023-02-14T21:02:34.491Z,80.52
2023-02-14T21:05:07.052Z,80.62
2023-02-14T21:07:39.352Z,81.40
2023-02-14T21:10:11.810Z,80.89
2023-02-14T21:12:44.811Z,81.02
2023-02-14T21:15:19.296Z,80.63
2023-02-14T21:17:51.614Z,80.20
2023-02-14T21:20:24.328Z,81.47
2023-02-14T21:22:56.708Z,81.33
2023-02-14T21:25:30.747Z,80.60
2023-02-14T21:28:03.818Z,80.92
2023-02-14T21:30:36.186Z,80.49
2023-02-14T21:33:08.544Z,81.79
2023-02-14T21:35:41.151Z,82.47
2023-02-14T21:38:13.622Z,82.08
2023-02-14T21:40:46.043Z,81.87
2023-02-14T21:43:19.036Z,80.86
2023-02-14T21:45:53.899Z,80.11
2023-02-14T21:48:44.445Z,80.51
2023-02-14T21:51:17.277Z,80.56
2023-02-14T21:53:49.842Z,80.34
2023-02-14T21:56:23.175Z,80.22
2023-02-14T21:58:56.566Z,79.77
2023-02-14T22:01:31.730Z,80.98
2023-02-14T22:04:07.028Z,81.04
2023-02-14T22:06:41.296Z,81.45
2023-02-14T22:09:14.298Z,81.51
2023-02-14T22:11:47.117Z,82.14
2023-02-14T22:14:20.152Z,82.51
2023-02-14T22:16:52.504Z,82.63
2023-02-14T22:19:24.822Z,82.41
2023-02-14T22:21:57.259Z,81.14
2023-02-14T22:24:29.601Z,81.55
2023-02-14T22:27:01.990Z,82.66
2023-02-14T22:29:35.522Z,83.20
2023-02-14T22:32:08.327Z,84.77
2023-02-14T22:34:40.795Z,85.37
2023-02-14T22:37:13.124Z,84.49
2023-02-14T22:39:45.545Z,84.04
2023-02-14T22:42:18.066Z,84.03
2023-02-14T22:44:51.183Z,83.88
2023-02-14T22:47:23.518Z,83.78
2023-02-14T22:49:56.039Z,85.25
2023-02-14T22:52:28.360Z,85.03
2023-02-14T22:55:01.003Z,85.41
2023-02-14T22:57:33.379Z,85.19
2023-02-14T23:00:10.953Z,85.37
2023-02-14T23:02:43.364Z,85.07
2023-02-14T23:05:16.420Z,85.25
2023-02-14T23:07:48.739Z,85.00
2023-02-14T23:10:21.141Z,85.40
2023-02-14T23:13:11.816Z,86.23
2023-02-14T23:16:03.604Z,85.39
2023-02-14T23:18:54.411Z,86.31
2023-02-14T23:21:50.526Z,85.84
2023-02-14T23:24:23.796Z,85.44
2023-02-14T23:26:56.224Z,85.56
2023-02-14T23:29:28.798Z,86.48
2023-02-14T23:32:01.916Z,87.42
2023-02-14T23:34:36.371Z,87.46
2023-02-14T23:37:10.228Z,87.38
2023-02-14T23:39:42.594Z,86.20
2023-02-14T23:42:15.442Z,85.78
2023-02-14T23:44:48.388Z,84.94
2023-02-14T23:47:21.434Z,85.02
2023-02-14T23:49:53.880Z,86.85
2023-02-14T23:52:26.286Z,86.05
2023-02-14T23:54:58.627Z,86.48
2023-02-14T23:57:31.062Z,85.91
